createdAt,value
2022-11-27T00:00:12.854Z,6.57
2022-11-27T00:02:41.036Z,9.91
2022-11-27T00:05:09.617Z,9.52
2022-11-27T00:07:37.291Z,9.35
2022-11-27T00:10:05.837Z,9.84
2022-11-27T00:12:33.602Z,8.82
2022-11-27T00:15:01.308Z,9.26
2022-11-27T00:17:30.477Z,9.67
2022-11-27T00:19:58.119Z,8.88
2022-11-27T00:22:26.596Z,9.08
2022-11-27T00:24:54.297Z,8.16
2022-11-27T00:27:22.182Z,9.75
2022-11-27T00:29:49.813Z,9.37
2022-11-27T00:32:17.450Z,9.72
2022-11-27T00:34:46.539Z,8.34
2022-11-27T00:37:14.832Z,8.66
2022-11-27T00:39:42.545Z,9.67
2022-11-27T00:42:10.204Z,9.25
2022-11-27T00:44:38.191Z,9.27
2022-11-27T00:47:06.407Z,9.10
2022-11-27T00:49:34.078Z,6.34
2022-11-27T00:52:03.220Z,8.65
2022-11-27T00:54:31.044Z,7.57
2022-11-27T00:57:01.981Z,7.08
2022-11-27T00:59:29.948Z,8.12
2022-11-27T01:01:57.880Z,8.44
2022-11-27T01:04:26.783Z,8.65
2022-11-27T01:06:54.434Z,8.12
2022-11-27T01:09:23.648Z,9.00
2022-11-27T01:11:51.399Z,8.15
2022-11-27T01:14:19.328Z,8.02
2022-11-27T01:16:47.192Z,7.52
2022-11-27T01:19:15.322Z,7.92
2022-11-27T01:21:43.278Z,7.07
2022-11-27T01:24:11.383Z,7.19
2022-11-27T01:26:47.860Z,7.80
2022-11-27T01:29:15.751Z,8.64
2022-11-27T01:31:43.521Z,7.53
2022-11-27T01:34:15.254Z,6.43
2022-11-27T01:36:43.077Z,7.84
2022-11-27T01:39:11.840Z,9.08
2022-11-27T01:41:41.332Z,6.96
2022-11-27T01:44:42.359Z,7.01
2022-11-27T01:47:13.718Z,8.71
2022-11-27T01:49:44.279Z,8.32
2022-11-27T01:52:13.125Z,7.48
2022-11-27T01:54:42.284Z,8.08
2022-11-27T01:57:14.906Z,6.36
2022-11-27T01:59:42.646Z,8.09
2022-11-27T02:02:10.416Z,7.05
2022-11-27T02:04:38.534Z,6.67
2022-11-27T02:07:06.764Z,8.06
2022-11-27T02:09:34.562Z,7.23
2022-11-27T02:12:05.934Z,7.75
2022-11-27T02:14:37.879Z,8.52
2022-11-27T02:17:09.562Z,8.28
2022-11-27T02:19:52.003Z,6.18
2022-11-27T02:22:26.189Z,7.92
2022-11-27T02:24:57.801Z,8.03
2022-11-27T02:27:49.362Z,8.88
2022-11-27T02:30:18.929Z,7.07
2022-11-27T02:32:49.491Z,6.22
2022-11-27T02:35:19.481Z,8.07
2022-11-27T02:37:48.321Z,8.70
2022-11-27T02:40:18.508Z,8.63
2022-11-27T02:42:47.597Z,8.82
2022-11-27T02:45:19.817Z,8.34
2022-11-27T02:47:47.742Z,8.57
2022-11-27T02:50:16.474Z,7.89
2022-11-27T02:52:44.531Z,7.64
2022-11-27T02:55:14.045Z,8.82
2022-11-27T02:57:42.841Z,6.56
2022-11-27T03:00:11.796Z,7.02
2022-11-27T03:02:42.917Z,7.90
2022-11-27T03:05:12.407Z,9.09
2022-11-27T03:07:41.320Z,7.30
2022-11-27T03:10:13.746Z,8.82
2022-11-27T03:12:41.614Z,8.43
2022-11-27T03:15:10.408Z,7.76
2022-11-27T03:17:47.583Z,6.61
2022-11-27T03:20:17.490Z,6.62
2022-11-27T03:22:46.811Z,8.17
2022-11-27T03:25:16.587Z,9.01
2022-11-27T03:27:49.080Z,6.36
2022-11-27T03:30:17.229Z,8.90
2022-11-27T03:32:46.448Z,9.12
2022-11-27T03:35:15.491Z,7.84
2022-11-27T03:37:43.310Z,7.31
2022-11-27T03:40:11.924Z,8.10
2022-11-27T03:42:45.902Z,8.48
2022-11-27T03:45:16.377Z,7.84
2022-11-27T03:47:52.533Z,6.75
2022-11-27T03:50:23.766Z,8.50
2022-11-27T03:52:54.753Z,7.17
2022-11-27T03:55:24.518Z,8.33
2022-11-27T03:57:54.637Z,6.47
2022-11-27T04:00:22.616Z,6.66
2022-11-27T04:02:53.333Z,7.73
2022-11-27T04:05:21.599Z,8.51
2022-11-27T04:07:49.626Z,8.00
2022-11-27T04:10:17.470Z,8.20
2022-11-27T04:12:45.124Z,8.58
2022-11-27T04:15:13.161Z,8.04
2022-11-27T04:17:42.128Z,7.56
2022-11-27T04:20:13.440Z,8.41
2022-11-27T04:22:41.235Z,8.75
2022-11-27T04:25:09.852Z,8.54
2022-11-27T04:27:37.628Z,7.74
2022-11-27T04:30:05.938Z,8.11
2022-11-27T04:32:33.639Z,8.82
2022-11-27T04:35:01.862Z,9.35
2022-11-27T04:37:31.175Z,8.71
2022-11-27T04:39:59.088Z,8.76
2022-11-27T04:42:26.938Z,9.56
2022-11-27T04:44:54.713Z,7.74
2022-11-27T04:47:24.594Z,7.91
2022-11-27T04:49:55.519Z,8.24
2022-11-27T04:52:23.371Z,9.60
2022-11-27T04:54:59.643Z,8.29
2022-11-27T04:57:28.043Z,7.61
2022-11-27T04:59:55.909Z,9.52
2022-11-27T05:02:23.755Z,8.86
2022-11-27T05:04:51.637Z,6.95
2022-11-27T05:07:19.492Z,8.19
2022-11-27T05:09:47.295Z,9.68
2022-11-27T05:12:16.429Z,9.59
2022-11-27T05:14:44.246Z,7.92
2022-11-27T05:17:12.084Z,6.92
2022-11-27T05:19:39.751Z,9.57
2022-11-27T05:22:07.448Z,9.72
2022-11-27T05:24:35.216Z,7.91
2022-11-27T05:27:03.037Z,9.80
2022-11-27T05:29:32.497Z,8.77
2022-11-27T05:32:00.192Z,9.05
2022-11-27T05:34:28.018Z,8.83
2022-11-27T05:36:56.094Z,9.15
2022-11-27T05:39:23.925Z,8.31
2022-11-27T05:41:51.862Z,7.26
2022-11-27T05:44:19.640Z,9.85
2022-11-27T05:46:48.922Z,9.01
2022-11-27T05:49:16.997Z,9.26
2022-11-27T05:51:50.614Z,9.29
2022-11-27T05:54:19.002Z,8.56
2022-11-27T05:56:46.897Z,8.90
2022-11-27T05:59:15.055Z,8.14
2022-11-27T06:01:43.295Z,8.45
2022-11-27T06:04:12.476Z,9.35
2022-11-27T06:06:40.223Z,9.36
2022-11-27T06:09:12.739Z,7.47
2022-11-27T06:11:41.619Z,7.38
2022-11-27T06:15:07.328Z,10.09
2022-11-27T06:17:35.170Z,9.41
2022-11-27T06:20:04.599Z,9.72
2022-11-27T06:22:32.424Z,7.86
2022-11-27T06:25:00.162Z,9.05
2022-11-27T06:27:27.955Z,10.19
2022-11-27T06:29:55.675Z,9.14
2022-11-27T06:32:23.601Z,10.11
2022-11-27T06:34:51.389Z,7.08
2022-11-27T06:37:20.523Z,8.67
2022-11-27T06:39:49.232Z,8.05
2022-11-27T06:42:17.005Z,9.53
2022-11-27T06:44:44.785Z,10.00
2022-11-27T06:47:12.447Z,9.13
2022-11-27T06:49:40.127Z,8.55
2022-11-27T06:54:38.637Z,10.26
2022-11-27T06:57:06.440Z,10.35
2022-11-27T06:59:34.442Z,10.03
2022-11-27T07:02:02.233Z,10.31
2022-11-27T07:04:30.019Z,10.24
2022-11-27T07:06:58.708Z,10.28
2022-11-27T07:09:28.463Z,10.28
2022-11-27T07:11:57.467Z,10.27
2022-11-27T07:14:25.231Z,10.34
2022-11-27T07:16:52.907Z,10.37
2022-11-27T07:19:21.205Z,10.30
2022-11-27T07:21:48.889Z,10.36
2022-11-27T07:24:16.720Z,10.42
2022-11-27T07:26:44.400Z,10.42
2022-11-27T07:29:13.815Z,10.36
2022-11-27T07:31:41.936Z,10.08
2022-11-27T07:34:14.986Z,10.54
2022-11-27T07:36:44.822Z,10.56
2022-11-27T07:39:12.821Z,10.40
2022-11-27T07:41:40.446Z,10.59
2022-11-27T07:44:08.176Z,10.63
2022-11-27T07:46:37.191Z,10.61
2022-11-27T07:49:05.051Z,10.65
2022-11-27T07:51:32.699Z,10.64
2022-11-27T07:54:00.714Z,10.67
2022-11-27T07:56:28.493Z,10.69
2022-11-27T07:58:57.341Z,10.69
2022-11-27T08:01:25.011Z,10.75
2022-11-27T08:03:54.359Z,10.75
2022-11-27T08:06:22.920Z,10.78
2022-11-27T08:08:50.892Z,10.30
2022-11-27T08:11:19.672Z,10.94
2022-11-27T08:13:47.517Z,11.04
2022-11-27T08:16:15.326Z,11.09
2022-11-27T08:18:43.036Z,11.01
2022-11-27T08:21:12.255Z,11.14
2022-11-27T08:23:39.967Z,11.14
2022-11-27T08:26:08.080Z,10.95
2022-11-27T08:28:35.743Z,11.30
2022-11-27T08:31:03.999Z,11.22
2022-11-27T08:33:31.745Z,11.47
2022-11-27T08:35:59.507Z,11.48
2022-11-27T08:38:28.679Z,11.51
2022-11-27T08:40:57.280Z,11.16
2022-11-27T08:43:25.121Z,11.64
2022-11-27T08:45:52.950Z,11.61
2022-11-27T08:48:21.221Z,11.66
2022-11-27T08:50:49.085Z,11.50
2022-11-27T08:53:16.962Z,11.56
2022-11-27T08:55:46.372Z,11.70
2022-11-27T08:58:14.023Z,12.07
2022-11-27T09:00:41.916Z,11.85
2022-11-27T09:03:11.927Z,12.38
2022-11-27T09:05:42.895Z,11.76
2022-11-27T09:08:12.481Z,12.18
2022-11-27T09:10:40.460Z,12.56
2022-11-27T09:13:09.409Z,12.48
2022-11-27T09:15:37.025Z,12.52
2022-11-27T09:18:04.762Z,12.44
2022-11-27T09:21:17.187Z,12.58
2022-11-27T09:24:11.211Z,12.46
2022-11-27T09:26:39.283Z,12.72
2022-11-27T09:29:09.515Z,12.12
2022-11-27T09:31:37.474Z,11.90
2022-11-27T09:34:05.708Z,12.60
2022-11-27T09:36:36.852Z,12.30
2022-11-27T09:39:05.159Z,12.24
2022-11-27T09:41:43.125Z,12.54
2022-11-27T09:44:28.594Z,12.00
2022-11-27T09:46:57.020Z,12.48
2022-11-27T09:49:27.822Z,12.11
2022-11-27T09:51:57.672Z,12.48
2022-11-27T09:54:27.099Z,12.02
2022-11-27T09:56:55.870Z,12.45
2022-11-27T09:59:26.518Z,12.38
2022-11-27T10:01:54.496Z,12.60
2022-11-27T10:04:23.227Z,12.82
2022-11-27T10:07:04.214Z,12.85
2022-11-27T10:09:36.876Z,12.98
2022-11-27T10:12:07.708Z,13.00
2022-11-27T10:14:43.745Z,13.25
2022-11-27T10:17:12.431Z,12.87
2022-11-27T10:19:43.905Z,13.41
2022-11-27T10:22:31.298Z,13.53
2022-11-27T10:25:05.734Z,13.74
2022-11-27T10:27:36.602Z,13.99
2022-11-27T10:30:14.271Z,14.34
2022-11-27T10:32:57.520Z,14.65
2022-11-27T10:35:25.669Z,14.89
2022-11-27T10:37:54.207Z,14.97
2022-11-27T10:40:24.451Z,15.02
2022-11-27T10:42:55.584Z,15.17
2022-11-27T10:45:26.165Z,15.11
2022-11-27T10:47:53.883Z,15.09
2022-11-27T10:50:21.844Z,15.22
2022-11-27T10:52:52.788Z,14.84
2022-11-27T10:55:26.518Z,15.58
2022-11-27T10:58:03.641Z,15.65
2022-11-27T11:00:32.601Z,15.67
2022-11-27T11:03:01.319Z,15.35
2022-11-27T11:08:17.753Z,15.28
2022-11-27T11:10:46.649Z,15.27
2022-11-27T11:13:19.733Z,15.28
2022-11-27T11:15:52.081Z,15.20
2022-11-27T11:18:19.966Z,14.85
2022-11-27T11:20:51.673Z,14.83
2022-11-27T11:23:34.847Z,14.93
2022-11-27T11:26:04.884Z,14.75
2022-11-27T11:28:39.217Z,14.56
2022-11-27T11:31:10.378Z,14.55
2022-11-27T11:33:40.934Z,14.42
2022-11-27T11:36:10.405Z,14.31
2022-11-27T11:38:39.490Z,14.13
2022-11-27T11:41:07.827Z,14.24
2022-11-27T11:43:36.485Z,14.19
2022-11-27T11:46:17.065Z,14.01
2022-11-27T11:49:10.412Z,13.29
2022-11-27T11:52:09.596Z,13.95
2022-11-27T11:55:06.804Z,13.98
2022-11-27T11:58:30.244Z,10.53
2022-11-27T12:01:25.881Z,13.71
2022-11-27T12:04:06.809Z,13.92
2022-11-27T12:06:51.400Z,13.95
2022-11-27T12:09:34.783Z,13.93
2022-11-27T12:12:05.012Z,13.24
2022-11-27T12:14:42.395Z,13.84
2022-11-27T12:17:42.730Z,13.89
2022-11-27T12:20:43.172Z,12.98
2022-11-27T12:23:32.996Z,10.66
2022-11-27T12:26:07.431Z,13.75
2022-11-27T12:28:59.154Z,13.56
2022-11-27T12:31:56.596Z,13.39
2022-11-27T12:34:27.758Z,12.80
2022-11-27T12:37:11.102Z,12.91
2022-11-27T12:40:03.310Z,13.12
2022-11-27T12:42:33.768Z,13.12
2022-11-27T12:45:02.380Z,13.00
2022-11-27T12:47:38.677Z,13.15
2022-11-27T12:50:10.150Z,13.04
2022-11-27T12:52:41.873Z,13.14
2022-11-27T12:55:12.312Z,13.26
2022-11-27T12:57:41.360Z,13.20
2022-11-27T13:00:15.915Z,11.81
2022-11-27T13:02:46.667Z,11.55
2022-11-27T13:05:16.653Z,10.75
2022-11-27T13:07:49.124Z,13.52
2022-11-27T13:10:22.540Z,12.38
2022-11-27T13:12:53.002Z,13.08
2022-11-27T13:15:25.691Z,12.83
2022-11-27T13:17:58.013Z,12.81
2022-11-27T13:20:29.747Z,11.83
2022-11-27T13:22:59.297Z,13.92
2022-11-27T13:25:27.865Z,12.93
2022-11-27T13:27:56.030Z,14.03
2022-11-27T13:30:24.994Z,11.56
2022-11-27T13:32:55.317Z,12.90
2022-11-27T13:35:26.983Z,14.02
2022-11-27T13:38:00.906Z,12.20
2022-11-27T13:40:30.289Z,13.09
2022-11-27T13:43:05.864Z,11.49
2022-11-27T13:45:35.549Z,14.18
2022-11-27T13:48:05.387Z,13.03
2022-11-27T13:50:33.403Z,13.36
2022-11-27T13:53:04.637Z,14.19
2022-11-27T13:55:33.936Z,14.08
2022-11-27T13:58:03.871Z,12.40
2022-11-27T14:00:33.831Z,13.67
2022-11-27T14:03:01.981Z,12.14
2022-11-27T14:05:38.164Z,12.47
2022-11-27T14:08:19.254Z,11.46
2022-11-27T14:10:52.464Z,13.25
2022-11-27T14:13:23.565Z,11.58
2022-11-27T14:16:02.716Z,13.60
2022-11-27T14:18:31.486Z,11.52
2022-11-27T14:21:01.205Z,14.01
2022-11-27T14:23:31.773Z,13.44
2022-11-27T14:26:04.557Z,12.99
2022-11-27T14:28:32.747Z,14.07
2022-11-27T14:31:01.210Z,12.23
2022-11-27T14:33:31.185Z,13.59
2022-11-27T14:36:00.697Z,13.00
2022-11-27T14:38:29.318Z,13.73
2022-11-27T14:41:10.292Z,12.45
2022-11-27T14:43:38.333Z,11.38
2022-11-27T14:46:08.322Z,12.95
2022-11-27T14:48:43.856Z,13.06
2022-11-27T14:51:15.820Z,11.24
2022-11-27T14:53:43.763Z,11.27
2022-11-27T14:56:13.385Z,10.84
2022-11-27T14:58:42.661Z,12.53
2022-11-27T15:01:23.191Z,12.67
2022-11-27T15:03:57.685Z,11.42
2022-11-27T15:06:26.582Z,11.29
2022-11-27T15:09:23.681Z,12.53
2022-11-27T15:11:56.003Z,13.38
2022-11-27T15:14:24.413Z,10.39
2022-11-27T15:16:53.302Z,10.41
2022-11-27T15:19:32.081Z,12.74
2022-11-27T15:22:01.113Z,12.01
2022-11-27T15:24:32.268Z,12.28
2022-11-27T15:27:20.548Z,13.44
2022-11-27T15:30:10.927Z,11.39
2022-11-27T15:32:52.617Z,12.05
2022-11-27T15:35:29.354Z,13.30
2022-11-27T15:37:58.200Z,12.01
2022-11-27T15:40:31.137Z,11.22
2022-11-27T15:43:00.579Z,12.54
2022-11-27T15:45:32.432Z,12.33
2022-11-27T15:48:02.184Z,12.55
2022-11-27T15:50:33.457Z,10.79
2022-11-27T15:53:02.694Z,9.88
2022-11-27T15:55:33.559Z,12.66
2022-11-27T15:58:04.461Z,10.65
2022-11-27T16:00:32.448Z,10.84
2022-11-27T16:03:00.291Z,11.37
2022-11-27T16:05:28.654Z,11.67
2022-11-27T16:07:57.256Z,12.96
2022-11-27T16:10:25.486Z,12.48
2022-11-27T16:12:55.446Z,10.38
2022-11-27T16:15:28.840Z,12.81
2022-11-27T16:18:00.611Z,11.44
2022-11-27T16:20:28.859Z,12.57
2022-11-27T16:22:56.794Z,11.98
2022-11-27T16:25:25.440Z,11.40
2022-11-27T16:27:57.984Z,11.58
2022-11-27T16:30:31.035Z,10.86
2022-11-27T16:32:59.816Z,11.49
2022-11-27T16:35:37.395Z,9.94
2022-11-27T16:38:05.797Z,11.75
2022-11-27T16:40:35.031Z,11.02
2022-11-27T16:43:03.271Z,9.32
2022-11-27T16:45:33.032Z,11.93
2022-11-27T16:48:01.935Z,10.65
2022-11-27T16:50:30.806Z,12.25
2022-11-27T16:52:58.813Z,12.60
2022-11-27T16:55:27.523Z,11.10
2022-11-27T16:57:56.421Z,10.39
2022-11-27T17:00:25.084Z,11.55
2022-11-27T17:02:55.225Z,12.52
2022-11-27T17:05:23.581Z,10.35
2022-11-27T17:07:52.944Z,11.64
2022-11-27T17:10:21.064Z,9.38
2022-11-27T17:12:49.075Z,11.66
2022-11-27T17:15:17.321Z,11.44
2022-11-27T17:17:45.275Z,11.80
2022-11-27T17:20:14.937Z,11.51
2022-11-27T17:22:42.796Z,11.06
2022-11-27T17:25:11.312Z,11.31
2022-11-27T17:27:39.533Z,11.84
2022-11-27T17:30:09.427Z,12.45
2022-11-27T17:32:37.886Z,10.62
2022-11-27T17:35:07.018Z,12.44
2022-11-27T17:37:36.659Z,11.55
2022-11-27T17:40:04.931Z,10.64
2022-11-27T17:42:33.230Z,10.42
2022-11-27T17:45:01.723Z,10.06
2022-11-27T17:47:30.065Z,11.32
2022-11-27T17:50:10.720Z,11.73
2022-11-27T17:52:40.924Z,12.32
2022-11-27T17:55:10.530Z,8.69
2022-11-27T17:57:38.758Z,11.64
2022-11-27T18:00:08.225Z,11.36
2022-11-27T18:02:36.438Z,9.90
2022-11-27T18:05:04.452Z,10.47
2022-11-27T18:07:32.765Z,10.39
2022-11-27T18:10:02.383Z,10.46
2022-11-27T18:12:30.981Z,11.19
2022-11-27T18:15:01.407Z,8.72
2022-11-27T18:17:30.042Z,10.48
2022-11-27T18:19:59.230Z,10.08
2022-11-27T18:22:27.280Z,11.80
2022-11-27T18:24:56.378Z,9.53
2022-11-27T18:27:26.199Z,10.81
2022-11-27T18:29:55.032Z,10.66
2022-11-27T18:32:23.247Z,11.86
2022-11-27T18:34:54.676Z,12.01
2022-11-27T18:37:26.561Z,12.57
2022-11-27T18:39:56.681Z,9.36
2022-11-27T18:42:34.627Z,11.63
2022-11-27T18:45:25.228Z,9.78
2022-11-27T18:47:54.352Z,12.64
2022-11-27T18:50:26.928Z,11.69
2022-11-27T18:53:27.725Z,11.46
2022-11-27T18:56:06.929Z,10.43
2022-11-27T18:59:17.883Z,11.25
2022-11-27T19:04:20.711Z,11.98
2022-11-27T19:06:48.340Z,12.04
2022-11-27T19:09:16.046Z,11.98
2022-11-27T19:11:43.821Z,12.02
2022-11-27T19:14:11.462Z,11.97
2022-11-27T19:16:41.885Z,12.00
2022-11-27T19:19:34.599Z,12.08
2022-11-27T19:21:59.195Z,12.14
2022-11-27T19:24:26.778Z,12.15
2022-11-27T19:26:54.448Z,12.21
2022-11-27T19:29:22.116Z,12.27
2022-11-27T19:31:49.868Z,12.35
2022-11-27T19:34:17.663Z,12.40
2022-11-27T19:36:45.348Z,12.47
2022-11-27T19:39:15.240Z,12.50
2022-11-27T19:41:43.243Z,12.53
2022-11-27T19:44:11.539Z,12.54
2022-11-27T19:46:39.192Z,12.52
2022-11-27T19:49:08.064Z,12.47
2022-11-27T19:51:36.733Z,12.12
2022-11-27T19:54:09.887Z,12.42
2022-11-27T19:56:40.012Z,12.35
2022-11-27T19:59:07.953Z,12.27
2022-11-27T20:01:35.675Z,12.25
2022-11-27T20:04:03.923Z,12.24
2022-11-27T20:06:31.570Z,12.17
2022-11-27T20:09:00.648Z,12.14
2022-11-27T20:11:34.072Z,12.12
2022-11-27T20:14:10.217Z,12.12
2022-11-27T20:16:38.135Z,12.10
2022-11-27T20:19:06.526Z,12.09
2022-11-27T20:21:34.159Z,12.07
2022-11-27T20:24:02.659Z,11.70
2022-11-27T20:26:30.546Z,12.00
2022-11-27T20:28:58.234Z,12.05
2022-11-27T20:31:29.135Z,12.07
2022-11-27T20:33:58.459Z,12.00
2022-11-27T20:36:26.104Z,12.07
2022-11-27T20:38:55.441Z,12.10
2022-11-27T20:41:23.197Z,12.01
2022-11-27T20:43:51.585Z,12.06
2022-11-27T20:46:19.293Z,12.04
2022-11-27T20:48:48.537Z,11.80
2022-11-27T20:51:17.908Z,12.00
2022-11-27T20:53:46.360Z,11.99
2022-11-27T20:56:15.336Z,11.94
2022-11-27T20:58:44.020Z,11.83
2022-11-27T21:01:15.756Z,12.00
2022-11-27T21:03:58.032Z,12.03
2022-11-27T21:06:27.977Z,12.05
2022-11-27T21:08:55.694Z,12.04
2022-11-27T21:11:25.078Z,12.05
2022-11-27T21:13:53.102Z,12.05
2022-11-27T21:16:20.823Z,12.05
2022-11-27T21:18:48.547Z,12.10
2022-11-27T21:21:16.173Z,12.14
2022-11-27T21:23:45.183Z,12.14
2022-11-27T21:26:14.014Z,12.15
2022-11-27T21:28:42.692Z,12.21
2022-11-27T21:31:11.246Z,12.14
2022-11-27T21:33:38.834Z,12.07
2022-11-27T21:36:06.850Z,12.16
2022-11-27T21:38:34.775Z,12.23
2022-11-27T21:41:05.242Z,12.24
2022-11-27T21:43:32.925Z,12.21
2022-11-27T21:46:06.848Z,12.19
2022-11-27T21:48:34.480Z,12.15
2022-11-27T21:51:02.538Z,12.08
2022-11-27T21:53:30.489Z,12.14
2022-11-27T21:55:59.957Z,11.98
2022-11-27T21:58:33.953Z,12.04
2022-11-27T22:01:01.683Z,12.01
2022-11-27T22:03:29.359Z,12.04
2022-11-27T22:06:01.996Z,12.01
2022-11-27T22:08:29.677Z,12.03
2022-11-27T22:10:57.416Z,12.01
2022-11-27T22:13:24.987Z,11.82
2022-11-27T22:15:54.099Z,11.86
2022-11-27T22:18:21.717Z,11.88
2022-11-27T22:20:49.501Z,11.84
2022-11-27T22:23:17.916Z,11.90
2022-11-27T22:25:45.903Z,11.87
2022-11-27T22:28:13.482Z,11.93
2022-11-27T22:30:41.656Z,12.00
2022-11-27T22:33:10.711Z,12.01
2022-11-27T22:35:38.555Z,12.03
2022-11-27T22:38:06.178Z,12.03
2022-11-27T22:40:35.119Z,12.08
2022-11-27T22:43:02.714Z,12.13
2022-11-27T22:45:30.531Z,12.08
2022-11-27T22:47:58.143Z,12.08
2022-11-27T22:50:27.293Z,12.08
2022-11-27T22:52:58.255Z,11.99
2022-11-27T22:55:26.175Z,11.98
2022-11-27T22:57:53.811Z,11.89
2022-11-27T23:00:21.979Z,11.84
2022-11-27T23:02:49.831Z,11.86
2022-11-27T23:05:17.480Z,11.85
2022-11-27T23:07:46.602Z,11.81
2022-11-27T23:10:14.251Z,11.73
2022-11-27T23:12:41.979Z,11.62
2022-11-27T23:15:10.259Z,11.44
2022-11-27T23:17:40.872Z,11.21
2022-11-27T23:20:09.650Z,11.04
2022-11-27T23:22:37.838Z,11.02
2022-11-27T23:25:07.708Z,10.83
2022-11-27T23:27:35.483Z,10.78
2022-11-27T23:30:03.142Z,10.70
2022-11-27T23:32:30.998Z,10.60
2022-11-27T23:34:58.686Z,10.55
2022-11-27T23:37:26.494Z,10.44
2022-11-27T23:39:54.097Z,10.39
2022-11-27T23:42:23.501Z,10.38
2022-11-27T23:44:51.087Z,10.31
2022-11-27T23:47:18.693Z,10.34
2022-11-27T23:49:46.395Z,10.34
2022-11-27T23:52:17.155Z,10.27
2022-11-27T23:54:45.220Z,10.25
2022-11-27T23:57:12.837Z,10.23
2022-11-27T23:59:41.976Z,10.20
